createdAt,value
2017-08-16T00:00:09.458Z,26.44
2017-08-16T00:00:50.258Z,26.45
2017-08-16T00:01:31.058Z,26.39
2017-08-16T00:02:11.859Z,26.44
2017-08-16T00:02:52.659Z,26.47
2017-08-16T00:03:33.459Z,26.44
2017-08-16T00:04:14.259Z,26.43
2017-08-16T00:04:55.059Z,26.44
2017-08-16T00:05:35.860Z,26.44
2017-08-16T00:06:16.662Z,26.43
2017-08-16T00:06:57.462Z,26.44
2017-08-16T00:07:38.260Z,26.36
2017-08-16T00:08:19.062Z,26.47
2017-08-16T00:08:59.862Z,26.35
2017-08-16T00:10:37.422Z,26.44
2017-08-16T00:11:18.223Z,26.33
2017-08-16T00:11:59.024Z,26.44
2017-08-16T00:12:46.597Z,26.37
2017-08-16T00:13:27.464Z,26.33
2017-08-16T00:14:08.264Z,26.4
2017-08-16T00:14:49.064Z,26.36
2017-08-16T00:15:29.864Z,26.32
2017-08-16T00:17:27.857Z,26.32
2017-08-16T00:18:08.747Z,26.35
2017-08-16T00:18:49.548Z,26.32
2017-08-16T00:19:30.347Z,26.39
2017-08-16T00:20:11.147Z,26.37
2017-08-16T00:20:51.947Z,26.4
2017-08-16T00:21:32.747Z,26.43
2017-08-16T00:22:13.548Z,26.39
2017-08-16T00:22:54.350Z,26.37
2017-08-16T00:23:35.148Z,26.35
2017-08-16T00:24:15.949Z,26.44
2017-08-16T00:24:56.750Z,26.35
2017-08-16T00:25:37.550Z,26.33
2017-08-16T00:26:18.351Z,26.37
2017-08-16T00:26:59.150Z,26.3
2017-08-16T00:27:39.950Z,26.33
2017-08-16T00:28:20.751Z,26.39
2017-08-16T00:29:01.552Z,26.36
2017-08-16T00:29:42.352Z,26.33
2017-08-16T00:30:23.151Z,26.44
2017-08-16T00:31:03.952Z,26.45
2017-08-16T00:31:44.752Z,26.33
2017-08-16T00:32:25.552Z,26.5
2017-08-16T00:33:06.353Z,26.35
2017-08-16T00:33:47.153Z,26.35
2017-08-16T00:34:27.954Z,26.44
2017-08-16T00:35:08.754Z,26.52
2017-08-16T00:35:49.554Z,26.44
2017-08-16T00:36:30.354Z,26.48
2017-08-16T00:37:11.158Z,26.43
2017-08-16T00:37:51.957Z,26.45
2017-08-16T00:38:32.755Z,26.44
2017-08-16T00:39:13.554Z,26.47
2017-08-16T00:39:54.355Z,26.45
2017-08-16T00:40:35.157Z,26.44
2017-08-16T00:41:15.958Z,26.45
2017-08-16T00:41:56.761Z,26.43
2017-08-16T00:42:37.556Z,26.45
2017-08-16T00:43:18.358Z,26.44
2017-08-16T00:43:59.158Z,26.45
2017-08-16T00:44:39.958Z,26.44
2017-08-16T00:45:20.758Z,26.45
2017-08-16T00:46:01.559Z,26.43
2017-08-16T00:46:42.358Z,26.48
2017-08-16T00:47:23.159Z,26.45
2017-08-16T00:48:03.959Z,26.45
2017-08-16T00:48:44.760Z,26.47
2017-08-16T00:50:37.561Z,26.45
2017-08-16T00:51:18.360Z,26.43
2017-08-16T00:51:59.162Z,26.45
2017-08-16T00:52:39.962Z,26.45
2017-08-16T00:53:20.762Z,26.47
2017-08-16T00:54:01.562Z,26.47
2017-08-16T00:54:42.362Z,26.47
2017-08-16T00:55:23.163Z,26.47
2017-08-16T00:56:03.963Z,26.45
2017-08-16T00:56:44.764Z,26.47
2017-08-16T00:58:37.563Z,26.44
2017-08-16T00:59:18.364Z,26.48
2017-08-16T00:59:59.165Z,26.5
2017-08-16T01:00:39.967Z,26.45
2017-08-16T01:01:20.765Z,26.43
2017-08-16T01:02:01.567Z,26.43
2017-08-16T01:02:42.366Z,26.45
2017-08-16T01:03:23.167Z,26.45
2017-08-16T01:04:15.006Z,26.5
2017-08-16T01:04:55.807Z,26.4
2017-08-16T01:05:36.607Z,26.48
2017-08-16T01:06:17.408Z,26.44
2017-08-16T01:06:58.207Z,26.45
2017-08-16T01:07:39.009Z,26.45
2017-08-16T01:08:19.810Z,26.43
2017-08-16T01:09:01.244Z,26.45
2017-08-16T01:09:42.129Z,26.47
2017-08-16T01:10:22.930Z,26.44
2017-08-16T01:11:03.729Z,26.45
2017-08-16T01:11:44.530Z,26.48
2017-08-16T01:12:25.331Z,26.45
2017-08-16T01:13:06.131Z,26.45
2017-08-16T01:13:46.930Z,26.54
2017-08-16T01:14:27.732Z,26.43
2017-08-16T01:15:08.532Z,26.45
2017-08-16T01:15:49.331Z,26.45
2017-08-16T01:16:30.132Z,26.44
2017-08-16T01:17:10.932Z,26.48
2017-08-16T01:17:51.732Z,26.43
2017-08-16T01:18:32.533Z,26.43
2017-08-16T01:19:13.333Z,26.45
2017-08-16T01:19:54.134Z,26.47
2017-08-16T01:20:34.933Z,26.43
2017-08-16T01:21:15.735Z,26.47
2017-08-16T01:21:56.534Z,26.47
2017-08-16T01:22:37.335Z,26.43
2017-08-16T01:23:18.134Z,26.47
2017-08-16T01:23:58.937Z,26.47
2017-08-16T01:24:39.735Z,26.45
2017-08-16T01:25:20.536Z,26.43
2017-08-16T01:26:01.335Z,26.45
2017-08-16T01:26:42.137Z,26.4
2017-08-16T01:27:22.941Z,26.44
2017-08-16T01:28:03.738Z,26.45
2017-08-16T01:28:44.539Z,26.44
2017-08-16T01:29:25.337Z,26.45
2017-08-16T01:30:06.138Z,26.51
2017-08-16T01:30:46.939Z,26.45
2017-08-16T01:31:27.738Z,26.45
2017-08-16T01:32:08.542Z,26.43
2017-08-16T01:32:49.342Z,26.47
2017-08-16T01:33:30.139Z,26.44
2017-08-16T01:34:10.940Z,26.47
2017-08-16T01:34:51.740Z,26.47
2017-08-16T01:35:32.540Z,26.45
2017-08-16T01:36:13.341Z,26.44
2017-08-16T01:36:54.141Z,26.44
2017-08-16T01:37:34.944Z,26.45
2017-08-16T01:38:15.742Z,26.43
2017-08-16T01:39:53.183Z,26.43
2017-08-16T01:40:33.984Z,26.47
2017-08-16T01:41:14.782Z,26.45
2017-08-16T01:41:55.586Z,26.44
2017-08-16T01:42:36.385Z,26.45
2017-08-16T01:44:24.025Z,26.43
2017-08-16T01:45:04.826Z,26.48
2017-08-16T01:45:45.626Z,26.47
2017-08-16T01:46:26.424Z,26.47
2017-08-16T01:47:07.226Z,26.47
2017-08-16T01:47:48.027Z,26.44
2017-08-16T01:48:28.827Z,26.45
2017-08-16T01:49:09.627Z,26.43
2017-08-16T01:49:50.427Z,26.36
2017-08-16T01:50:31.227Z,26.4
2017-08-16T01:51:12.028Z,26.35
2017-08-16T01:51:52.830Z,26.44
2017-08-16T01:52:44.429Z,26.44
2017-08-16T01:53:25.229Z,26.5
2017-08-16T01:54:06.028Z,26.35
2017-08-16T01:54:46.830Z,26.43
2017-08-16T01:55:27.630Z,26.4
2017-08-16T01:56:08.431Z,26.47
2017-08-16T01:56:49.232Z,26.39
2017-08-16T01:57:30.030Z,26.44
2017-08-16T01:58:25.472Z,26.44
2017-08-16T01:59:06.272Z,26.44
2017-08-16T01:59:47.072Z,26.32
2017-08-16T02:00:27.872Z,26.37
2017-08-16T02:01:08.672Z,26.35
2017-08-16T02:01:49.472Z,26.35
2017-08-16T02:02:30.273Z,26.33
2017-08-16T02:03:11.076Z,26.3
2017-08-16T02:03:51.873Z,26.33
2017-08-16T02:04:32.675Z,26.44
2017-08-16T02:05:13.474Z,26.39
2017-08-16T02:05:54.274Z,26.35
2017-08-16T02:06:35.075Z,26.48
2017-08-16T02:07:15.876Z,26.37
2017-08-16T02:07:56.677Z,26.32
2017-08-16T02:08:37.477Z,26.37
2017-08-16T02:09:18.276Z,26.45
2017-08-16T02:09:59.076Z,26.48
2017-08-16T02:10:39.876Z,26.39
2017-08-16T02:11:20.677Z,26.35
2017-08-16T02:12:01.477Z,26.33
2017-08-16T02:12:42.278Z,26.3
2017-08-16T02:13:23.079Z,26.37
2017-08-16T02:14:03.878Z,26.43
2017-08-16T02:14:44.678Z,26.33
2017-08-16T02:15:25.479Z,26.36
2017-08-16T02:16:06.279Z,26.43
2017-08-16T02:16:47.080Z,26.33
2017-08-16T02:17:27.879Z,26.37
2017-08-16T02:18:08.680Z,26.32
2017-08-16T02:18:56.202Z,26.39
2017-08-16T02:19:37.000Z,26.43
2017-08-16T02:20:17.801Z,26.29
2017-08-16T02:20:58.605Z,26.43
2017-08-16T02:21:39.402Z,26.35
2017-08-16T02:22:20.203Z,26.4
2017-08-16T02:23:01.003Z,26.32
2017-08-16T02:23:41.803Z,26.3
2017-08-16T02:24:22.603Z,26.35
2017-08-16T02:25:03.404Z,26.35
2017-08-16T02:25:44.205Z,26.29
2017-08-16T02:26:25.004Z,26.37
2017-08-16T02:27:05.805Z,26.35
2017-08-16T02:27:46.604Z,26.32
2017-08-16T02:28:27.405Z,26.37
2017-08-16T02:29:08.205Z,26.29
2017-08-16T02:29:49.006Z,26.33
2017-08-16T02:30:29.806Z,26.32
2017-08-16T02:31:10.605Z,26.32
2017-08-16T02:31:51.406Z,26.32
2017-08-16T02:32:32.205Z,26.35
2017-08-16T02:33:13.006Z,26.33
2017-08-16T02:33:53.808Z,26.25
2017-08-16T02:34:34.608Z,26.29
2017-08-16T02:35:15.407Z,26.33
2017-08-16T02:35:56.207Z,26.26
2017-08-16T02:36:37.008Z,26.36
2017-08-16T02:37:17.809Z,26.26
2017-08-16T02:37:58.609Z,26.29
2017-08-16T02:38:39.410Z,26.35
2017-08-16T02:39:20.210Z,26.28
2017-08-16T02:40:01.010Z,26.37
2017-08-16T02:40:41.810Z,26.39
2017-08-16T02:41:22.611Z,26.3
2017-08-16T02:42:03.410Z,26.26
2017-08-16T02:42:44.211Z,26.29
2017-08-16T02:43:25.012Z,26.28
2017-08-16T02:44:05.811Z,26.43
2017-08-16T02:44:46.612Z,26.35
2017-08-16T02:45:27.412Z,26.29
2017-08-16T02:46:08.213Z,26.35
2017-08-16T02:46:49.012Z,26.28
2017-08-16T02:47:29.814Z,26.21
2017-08-16T02:48:10.614Z,26.23
2017-08-16T02:49:06.054Z,26.23
2017-08-16T02:49:46.854Z,26.2
2017-08-16T02:50:27.655Z,26.23
2017-08-16T02:51:08.455Z,26.23
2017-08-16T02:51:49.258Z,26.33
2017-08-16T02:52:30.057Z,26.21
2017-08-16T02:53:10.856Z,26.33
2017-08-16T02:53:51.656Z,26.23
2017-08-16T02:54:32.455Z,26.21
2017-08-16T02:55:13.257Z,26.21
2017-08-16T02:55:54.057Z,26.33
2017-08-16T02:56:34.861Z,26.33
2017-08-16T02:57:15.658Z,26.33
2017-08-16T02:57:56.463Z,26.29
2017-08-16T02:58:37.259Z,26.32
2017-08-16T02:59:18.091Z,26.3
2017-08-16T02:59:58.859Z,26.2
2017-08-16T03:00:39.660Z,26.23
2017-08-16T03:01:20.459Z,26.23
2017-08-16T03:02:01.261Z,26.3
2017-08-16T03:02:42.061Z,26.29
2017-08-16T03:03:22.861Z,26.23
2017-08-16T03:05:15.663Z,26.2
2017-08-16T03:05:56.462Z,26.32
2017-08-16T03:06:37.263Z,26.32
2017-08-16T03:07:18.063Z,26.33
2017-08-16T03:07:58.871Z,26.26
2017-08-16T03:08:39.663Z,26.28
2017-08-16T03:09:20.464Z,26.28
2017-08-16T03:10:01.265Z,26.28
2017-08-16T03:10:42.064Z,26.18
2017-08-16T03:11:22.868Z,26.26
2017-08-16T03:12:03.664Z,26.25
2017-08-16T03:12:44.465Z,26.26
2017-08-16T03:13:25.265Z,26.21
2017-08-16T03:14:06.065Z,26.21
2017-08-16T03:14:46.866Z,26.18
2017-08-16T03:15:27.677Z,26.18
2017-08-16T03:16:08.473Z,26.23
2017-08-16T03:16:49.292Z,26.2
2017-08-16T03:17:30.066Z,26.07
2017-08-16T03:18:10.902Z,26.18
2017-08-16T03:18:51.789Z,26.2
2017-08-16T03:19:32.593Z,26.13
2017-08-16T03:20:13.508Z,26.21
2017-08-16T03:20:54.309Z,26.2
2017-08-16T03:21:35.111Z,26.21
2017-08-16T03:22:16.154Z,26.15
2017-08-16T03:22:56.949Z,26.2
2017-08-16T03:23:37.870Z,26.23
2017-08-16T03:24:18.671Z,26.21
2017-08-16T03:25:00.241Z,26.29
2017-08-16T03:25:40.511Z,26.29
2017-08-16T03:26:21.311Z,26.25
2017-08-16T03:27:02.111Z,26.21
2017-08-16T03:27:42.911Z,26.28
2017-08-16T03:28:23.712Z,26.29
2017-08-16T03:29:04.512Z,26.25
2017-08-16T03:29:45.313Z,26.28
2017-08-16T03:30:26.119Z,26.23
2017-08-16T03:31:06.913Z,26.26
2017-08-16T03:31:47.713Z,26.23
2017-08-16T03:32:28.514Z,26.18
2017-08-16T03:33:09.314Z,26.29
2017-08-16T03:33:50.116Z,26.2
2017-08-16T03:34:30.916Z,26.29
2017-08-16T03:35:11.714Z,26.25
2017-08-16T03:35:52.567Z,26.25
2017-08-16T03:36:33.440Z,26.25
2017-08-16T03:37:14.236Z,26.21
2017-08-16T03:37:55.035Z,26.29
2017-08-16T03:38:35.836Z,26.29
2017-08-16T03:39:16.636Z,26.32
2017-08-16T03:39:57.439Z,26.35
2017-08-16T03:40:38.236Z,26.28
2017-08-16T03:41:19.038Z,26.26
2017-08-16T03:41:59.839Z,26.28
2017-08-16T03:42:40.641Z,26.26
2017-08-16T03:43:21.438Z,26.33
2017-08-16T03:44:02.241Z,26.26
2017-08-16T03:44:43.039Z,26.33
2017-08-16T03:45:23.840Z,26.32
2017-08-16T03:46:04.641Z,26.33
2017-08-16T03:46:45.440Z,26.29
2017-08-16T03:47:26.241Z,26.25
2017-08-16T03:48:07.040Z,26.37
2017-08-16T03:48:47.841Z,26.26
2017-08-16T03:49:28.640Z,26.3
2017-08-16T03:50:09.441Z,26.25
2017-08-16T03:50:50.241Z,26.28
2017-08-16T03:51:31.041Z,26.15
2017-08-16T03:52:11.843Z,26.21
2017-08-16T03:52:52.642Z,26.09
2017-08-16T03:53:33.443Z,26.2
2017-08-16T03:54:14.243Z,26.12
2017-08-16T03:55:51.685Z,26.02
2017-08-16T03:56:32.485Z,26.07
2017-08-16T03:57:13.288Z,25.98
2017-08-16T03:57:54.085Z,25.95
2017-08-16T03:58:34.886Z,25.97
2017-08-16T03:59:15.685Z,25.94
2017-08-16T03:59:56.485Z,25.95
2017-08-16T04:00:37.287Z,25.88
2017-08-16T04:01:18.086Z,25.87
2017-08-16T04:01:58.888Z,25.92
2017-08-16T04:02:39.688Z,25.85
2017-08-16T04:03:20.488Z,25.88
2017-08-16T04:04:01.288Z,25.9
2017-08-16T04:04:42.088Z,25.87
2017-08-16T04:05:22.895Z,25.87
2017-08-16T04:06:03.688Z,25.85
2017-08-16T04:06:44.489Z,25.77
2017-08-16T04:07:25.291Z,25.76
2017-08-16T04:08:06.089Z,25.8
2017-08-16T04:08:46.890Z,25.82
2017-08-16T04:09:27.691Z,25.79
2017-08-16T04:10:08.491Z,25.67
2017-08-16T04:10:49.291Z,25.75
2017-08-16T04:11:30.092Z,25.67
2017-08-16T04:12:10.892Z,25.67
2017-08-16T04:12:51.708Z,25.61
2017-08-16T04:13:32.491Z,25.67
2017-08-16T04:14:13.292Z,25.62
2017-08-16T04:14:54.093Z,25.62
2017-08-16T04:15:41.733Z,25.62
2017-08-16T04:16:22.533Z,25.6
2017-08-16T04:17:03.334Z,25.65
2017-08-16T04:19:01.295Z,25.65
2017-08-16T04:19:42.094Z,25.54
2017-08-16T04:20:22.897Z,25.54
2017-08-16T04:21:03.695Z,25.54
2017-08-16T04:21:44.495Z,25.55
2017-08-16T04:22:26.882Z,25.52
2017-08-16T04:23:08.136Z,25.47
2017-08-16T04:23:48.936Z,25.52
2017-08-16T04:24:30.097Z,25.5
2017-08-16T04:25:10.897Z,25.47
2017-08-16T04:25:51.703Z,25.43
2017-08-16T04:26:32.618Z,25.51
2017-08-16T04:27:13.898Z,25.47
2017-08-16T04:27:55.910Z,25.46
2017-08-16T04:28:35.978Z,25.46
2017-08-16T04:29:17.379Z,25.39
2017-08-16T04:31:29.982Z,25.47
2017-08-16T04:32:10.780Z,25.5
2017-08-16T04:32:51.581Z,25.42
2017-08-16T04:33:32.380Z,25.42
2017-08-16T04:34:13.181Z,25.35
2017-08-16T04:34:53.982Z,25.38
2017-08-16T04:35:34.782Z,25.3
2017-08-16T04:36:15.582Z,25.36
2017-08-16T04:36:56.383Z,25.35
2017-08-16T04:37:37.183Z,25.4
2017-08-16T04:38:17.982Z,25.28
2017-08-16T04:38:58.784Z,25.4
2017-08-16T04:39:39.584Z,25.32
2017-08-16T04:40:20.384Z,25.3
2017-08-16T04:41:01.186Z,25.3
2017-08-16T04:41:41.985Z,25.28
2017-08-16T04:43:34.785Z,25.36
2017-08-16T04:44:15.586Z,25.43
2017-08-16T04:44:56.385Z,25.43
2017-08-16T04:45:37.186Z,25.46
2017-08-16T04:46:17.986Z,25.42
2017-08-16T04:46:58.787Z,25.38
2017-08-16T04:48:56.746Z,25.35
2017-08-16T04:49:37.548Z,25.28
2017-08-16T04:50:18.348Z,25.25
2017-08-16T04:50:59.148Z,25.15
2017-08-16T04:51:39.948Z,25.2
2017-08-16T04:53:32.750Z,25.27
2017-08-16T04:54:13.551Z,25.27
2017-08-16T04:54:54.351Z,25.35
2017-08-16T04:55:35.150Z,25.24
2017-08-16T04:56:15.951Z,25.18
2017-08-16T04:56:56.752Z,25.17
2017-08-16T04:57:37.552Z,25.14
2017-08-16T04:58:18.352Z,25.09
2017-08-16T04:58:59.152Z,25.09
2017-08-16T04:59:39.954Z,25.02
2017-08-16T05:01:32.753Z,25.08
2017-08-16T05:02:13.553Z,25.02
2017-08-16T05:02:54.354Z,25.02
2017-08-16T05:03:35.156Z,24.91
2017-08-16T05:04:15.956Z,25.03
2017-08-16T05:04:56.754Z,24.98
2017-08-16T05:05:37.555Z,25.03
2017-08-16T05:06:33.116Z,24.96
2017-08-16T05:07:13.916Z,24.9
2017-08-16T05:07:54.716Z,24.88
2017-08-16T05:08:35.516Z,24.98
2017-08-16T05:09:16.318Z,24.95
2017-08-16T05:10:53.758Z,24.93
2017-08-16T05:11:34.560Z,24.91
2017-08-16T05:12:15.357Z,24.91
2017-08-16T05:12:56.158Z,24.93
2017-08-16T05:13:36.958Z,24.99
2017-08-16T05:15:29.760Z,24.87
2017-08-16T05:16:10.560Z,24.87
2017-08-16T05:16:51.360Z,24.85
2017-08-16T05:17:32.161Z,24.99
2017-08-16T05:18:12.961Z,24.91
2017-08-16T05:18:53.761Z,24.87
2017-08-16T05:19:34.562Z,24.93
2017-08-16T05:20:15.362Z,24.91
2017-08-16T05:20:56.163Z,24.99
2017-08-16T05:21:36.962Z,24.9
2017-08-16T05:22:17.764Z,24.99
2017-08-16T05:22:58.563Z,24.91
2017-08-16T05:23:39.363Z,24.98
2017-08-16T05:24:20.163Z,24.95
2017-08-16T05:25:00.963Z,24.95
2017-08-16T05:25:41.765Z,24.95
2017-08-16T05:26:22.564Z,24.9
2017-08-16T05:27:03.363Z,24.95
2017-08-16T05:27:44.165Z,24.88
2017-08-16T05:28:24.968Z,24.83
2017-08-16T05:29:05.765Z,24.78
2017-08-16T05:29:46.565Z,24.71
2017-08-16T05:30:27.365Z,24.65
2017-08-16T05:31:08.167Z,24.64
2017-08-16T05:31:48.966Z,24.52
2017-08-16T05:32:29.770Z,24.55
2017-08-16T05:33:10.568Z,24.55
2017-08-16T05:33:51.368Z,24.49
2017-08-16T05:34:32.167Z,24.42
2017-08-16T05:35:12.968Z,24.35
2017-08-16T05:35:53.769Z,24.37
2017-08-16T05:36:34.569Z,24.28
2017-08-16T05:37:15.369Z,24.34
2017-08-16T05:37:56.170Z,24.25
2017-08-16T05:38:36.969Z,24.24
2017-08-16T05:39:17.770Z,24.22
2017-08-16T05:39:58.570Z,24.25
2017-08-16T05:40:39.370Z,24.22
2017-08-16T05:41:20.172Z,24.24
2017-08-16T05:42:00.970Z,24.34
2017-08-16T05:42:41.772Z,24.32
2017-08-16T05:43:22.572Z,24.35
2017-08-16T05:44:03.372Z,24.39
2017-08-16T05:44:44.172Z,24.4
2017-08-16T05:45:24.972Z,24.4
2017-08-16T05:46:05.773Z,24.52
2017-08-16T05:46:46.574Z,24.53
2017-08-16T05:47:27.374Z,24.52
2017-08-16T05:48:08.174Z,24.52
2017-08-16T05:48:48.975Z,24.69
2017-08-16T05:49:29.774Z,24.71
2017-08-16T05:50:10.575Z,24.73
2017-08-16T05:51:48.016Z,24.87
2017-08-16T05:52:28.815Z,24.96
2017-08-16T05:53:09.617Z,25.06
2017-08-16T05:53:50.417Z,25.13
2017-08-16T05:54:31.217Z,25.24
2017-08-16T05:55:12.017Z,25.35
2017-08-16T05:57:04.818Z,25.62
2017-08-16T05:57:45.619Z,25.76
2017-08-16T05:58:26.417Z,25.75
2017-08-16T05:59:07.218Z,25.88
2017-08-16T05:59:48.019Z,25.9
2017-08-16T06:00:28.818Z,25.94
2017-08-16T06:01:09.619Z,25.97
2017-08-16T06:01:50.420Z,26.05
2017-08-16T06:02:31.220Z,25.98
2017-08-16T06:03:12.021Z,26.02
2017-08-16T06:03:52.820Z,26.05
2017-08-16T06:04:33.621Z,26.2
2017-08-16T06:05:16.017Z,26.28
2017-08-16T06:05:56.901Z,26.28
2017-08-16T06:06:37.703Z,26.21
2017-08-16T06:07:18.503Z,26.23
2017-08-16T06:07:59.303Z,26.26
2017-08-16T06:08:40.103Z,26.21
2017-08-16T06:09:20.903Z,26.29
2017-08-16T06:10:01.704Z,26.26
2017-08-16T06:10:42.504Z,26.28
2017-08-16T06:11:23.304Z,26.23
2017-08-16T06:12:04.104Z,26.33
2017-08-16T06:12:44.907Z,26.23
2017-08-16T06:13:25.705Z,26.32
2017-08-16T06:14:06.506Z,26.25
2017-08-16T06:14:47.306Z,26.26
2017-08-16T06:15:28.106Z,26.36
2017-08-16T06:16:08.906Z,26.25
2017-08-16T06:16:49.705Z,26.33
2017-08-16T06:17:30.506Z,26.33
2017-08-16T06:18:11.305Z,26.29
2017-08-16T06:18:52.107Z,26.26
2017-08-16T06:19:32.906Z,26.25
2017-08-16T06:20:13.707Z,26.3
2017-08-16T06:20:54.507Z,26.26
2017-08-16T06:21:35.308Z,26.35
2017-08-16T06:22:16.108Z,26.26
2017-08-16T06:22:56.911Z,26.25
2017-08-16T06:23:37.709Z,26.3
2017-08-16T06:24:18.510Z,26.26
2017-08-16T06:24:59.310Z,26.3
2017-08-16T06:25:40.110Z,26.33
2017-08-16T06:26:20.911Z,26.35
2017-08-16T06:27:01.711Z,26.28
2017-08-16T06:27:42.511Z,26.28
2017-08-16T06:28:23.312Z,26.26
2017-08-16T06:29:04.112Z,26.37
2017-08-16T06:29:44.912Z,26.32
2017-08-16T06:30:25.712Z,26.33
2017-08-16T06:31:06.514Z,26.21
2017-08-16T06:31:47.312Z,26.18
2017-08-16T06:32:28.113Z,26.21
2017-08-16T06:33:08.913Z,26.32
2017-08-16T06:33:49.714Z,26.26
2017-08-16T06:34:30.514Z,26.32
2017-08-16T06:35:11.314Z,26.32
2017-08-16T06:35:52.114Z,26.3
2017-08-16T06:37:44.915Z,26.39
2017-08-16T06:38:25.715Z,26.35
2017-08-16T06:39:06.515Z,26.39
2017-08-16T06:39:47.317Z,26.28
2017-08-16T06:40:28.116Z,26.33
2017-08-16T06:41:08.916Z,26.48
2017-08-16T06:41:49.721Z,26.44
2017-08-16T06:42:30.517Z,26.43
2017-08-16T06:43:11.319Z,26.45
2017-08-16T06:43:52.118Z,26.47
2017-08-16T06:44:32.919Z,26.47
2017-08-16T06:45:13.718Z,26.58
2017-08-16T06:45:54.519Z,26.52
2017-08-16T06:46:35.319Z,26.54
2017-08-16T06:47:16.119Z,26.6
2017-08-16T06:48:11.800Z,26.67
2017-08-16T06:48:52.601Z,26.66
2017-08-16T06:49:33.400Z,26.67
2017-08-16T06:50:14.200Z,26.81
2017-08-16T06:50:55.001Z,26.84
2017-08-16T06:51:35.920Z,26.92
2017-08-16T06:52:16.721Z,26.99
2017-08-16T06:52:57.525Z,27.03
2017-08-16T06:53:38.322Z,27.18
2017-08-16T06:54:19.122Z,27.41
2017-08-16T06:54:59.922Z,27.62
2017-08-16T06:55:40.722Z,27.49
2017-08-16T06:56:21.523Z,27.43
2017-08-16T06:57:02.323Z,27.49
2017-08-16T06:57:43.124Z,27.55
2017-08-16T06:58:23.925Z,27.54
2017-08-16T06:59:04.725Z,27.54
2017-08-16T06:59:45.526Z,27.62
2017-08-16T07:00:26.325Z,27.59
2017-08-16T07:01:07.126Z,27.57
2017-08-16T07:01:47.926Z,27.6
2017-08-16T07:02:28.726Z,27.62
2017-08-16T07:03:09.526Z,27.62
2017-08-16T07:03:50.328Z,27.72
2017-08-16T07:04:31.126Z,27.77
2017-08-16T07:05:11.927Z,27.84
2017-08-16T07:05:52.727Z,27.92
2017-08-16T07:06:48.408Z,27.9
2017-08-16T07:07:29.207Z,27.99
2017-08-16T07:08:10.009Z,28.18
2017-08-16T07:08:50.809Z,28.31
2017-08-16T07:09:31.610Z,28.41
2017-08-16T07:10:12.411Z,28.67
2017-08-16T07:10:53.209Z,29.34
2017-08-16T07:11:34.011Z,29.45
2017-08-16T07:12:14.812Z,29.49
2017-08-16T07:12:55.621Z,29.52
2017-08-16T07:13:36.411Z,29.65
2017-08-16T07:15:13.852Z,29.98
2017-08-16T07:15:54.651Z,30.11
2017-08-16T07:16:35.451Z,30.23
2017-08-16T07:17:31.254Z,30.45
2017-08-16T07:18:12.053Z,30.39
2017-08-16T07:20:04.856Z,30.89
2017-08-16T07:20:45.677Z,31.04
2017-08-16T07:21:26.454Z,31.39
2017-08-16T07:22:07.255Z,31.36
2017-08-16T07:22:48.055Z,31.39
2017-08-16T07:23:28.855Z,31.29
2017-08-16T07:24:09.655Z,31.29
2017-08-16T07:26:07.620Z,31.12
2017-08-16T07:26:48.416Z,31.09
2017-08-16T07:27:29.216Z,31.09
2017-08-16T07:28:10.016Z,31.12
2017-08-16T07:28:50.820Z,31.1
2017-08-16T07:29:31.617Z,30.97
2017-08-16T07:30:12.418Z,30.97
2017-08-16T07:30:53.218Z,30.98
2017-08-16T07:31:34.017Z,30.98
2017-08-16T07:32:14.818Z,31.04
2017-08-16T07:32:55.619Z,30.92
2017-08-16T07:33:36.419Z,31.04
2017-08-16T07:34:17.221Z,31.04
2017-08-16T07:34:58.019Z,31.13
2017-08-16T07:35:38.820Z,31.29
2017-08-16T07:36:19.620Z,31.32
2017-08-16T07:37:00.420Z,31.28
2017-08-16T07:37:41.221Z,31.16
2017-08-16T07:38:22.021Z,31.09
2017-08-16T07:39:02.821Z,31.13
2017-08-16T07:39:43.622Z,31.13
2017-08-16T07:40:24.421Z,31.26
2017-08-16T07:41:05.224Z,31.29
2017-08-16T07:41:46.022Z,31.72
2017-08-16T07:42:26.823Z,32.28
2017-08-16T07:43:22.504Z,33.15
2017-08-16T07:44:03.304Z,34.02
2017-08-16T07:45:50.947Z,34.53
2017-08-16T07:46:31.745Z,34.32
2017-08-16T07:47:12.545Z,34.15
2017-08-16T07:47:53.345Z,33.91
2017-08-16T07:48:48.905Z,33.86
2017-08-16T07:49:29.704Z,33.98
2017-08-16T07:50:10.506Z,33.82
2017-08-16T07:50:51.306Z,33.84
2017-08-16T07:51:32.108Z,33.69
2017-08-16T07:52:12.906Z,33.51
2017-08-16T07:52:53.707Z,33.37
2017-08-16T07:53:34.507Z,33.39
2017-08-16T07:54:15.307Z,33.18
2017-08-16T07:54:56.110Z,33.41
2017-08-16T07:56:48.908Z,32.67
2017-08-16T07:57:46.271Z,32.45
2017-08-16T07:58:27.070Z,32.26
2017-08-16T07:59:07.872Z,32.18
2017-08-16T07:59:48.670Z,32.04
2017-08-16T08:00:29.470Z,31.91
2017-08-16T08:01:10.272Z,31.81
2017-08-16T08:01:51.072Z,31.69
2017-08-16T08:02:31.872Z,31.5
2017-08-16T08:03:12.673Z,31.29
2017-08-16T08:03:53.472Z,31.19
2017-08-16T08:04:34.273Z,31.16
2017-08-16T08:05:15.072Z,31.07
2017-08-16T08:05:55.872Z,30.95
2017-08-16T08:06:36.673Z,30.76
2017-08-16T08:07:17.473Z,30.65
2017-08-16T08:07:58.274Z,30.53
2017-08-16T08:08:39.074Z,30.53
2017-08-16T08:10:31.874Z,30.7
2017-08-16T08:11:12.676Z,30.92
2017-08-16T08:11:53.476Z,31.21
2017-08-16T08:12:34.274Z,31.75
2017-08-16T08:13:15.076Z,31.63
2017-08-16T08:13:55.878Z,31.57
2017-08-16T08:14:36.677Z,31.56
2017-08-16T08:15:17.478Z,31.46
2017-08-16T08:16:54.951Z,31.32
2017-08-16T08:17:35.838Z,31.16
2017-08-16T08:18:16.692Z,31.13
2017-08-16T08:18:57.560Z,30.95
2017-08-16T08:19:38.358Z,30.82
2017-08-16T08:20:19.159Z,30.82
2017-08-16T08:20:59.960Z,30.73
2017-08-16T08:21:40.759Z,30.6
2017-08-16T08:22:21.560Z,30.6
2017-08-16T08:23:02.361Z,30.6
2017-08-16T08:23:43.160Z,30.62
2017-08-16T08:24:38.842Z,31.73
2017-08-16T08:25:19.642Z,32.96
2017-08-16T08:26:00.442Z,33.94
2017-08-16T08:26:41.242Z,34.84
2017-08-16T08:27:22.043Z,34.49
2017-08-16T08:28:02.843Z,35.06
2017-08-16T08:28:43.641Z,35.97
2017-08-16T08:29:39.204Z,35.74
2017-08-16T08:30:20.004Z,35.74
2017-08-16T08:31:00.804Z,36.47
2017-08-16T08:31:41.604Z,37.17
2017-08-16T08:32:22.404Z,37.69
2017-08-16T08:33:03.203Z,38.16
2017-08-16T08:33:44.005Z,38.09
2017-08-16T08:34:24.806Z,38.65
2017-08-16T08:35:05.606Z,38.54
2017-08-16T08:35:46.406Z,39.01
2017-08-16T08:36:27.205Z,39.38
2017-08-16T08:37:08.007Z,39.59
2017-08-16T08:37:48.807Z,39.82
2017-08-16T08:38:29.610Z,39.96
2017-08-16T08:39:10.407Z,39.96
2017-08-16T08:39:51.208Z,40.27
2017-08-16T08:40:32.008Z,40.29
2017-08-16T08:41:12.809Z,40.55
2017-08-16T08:41:53.608Z,40.42
2017-08-16T08:42:34.409Z,40.8
2017-08-16T08:43:15.209Z,40.98
2017-08-16T08:43:56.010Z,40.04
2017-08-16T08:44:36.809Z,39.6
2017-08-16T08:45:17.610Z,39.73
2017-08-16T08:45:58.408Z,40.23
2017-08-16T08:46:39.212Z,40.46
2017-08-16T08:47:20.010Z,40.43
2017-08-16T08:48:00.811Z,40.38
2017-08-16T08:48:41.611Z,39.41
2017-08-16T08:49:22.411Z,39.23
2017-08-16T08:50:18.094Z,39.98
2017-08-16T08:50:58.892Z,40.12
2017-08-16T08:51:39.693Z,40.31
2017-08-16T08:52:20.493Z,40.53
2017-08-16T08:53:01.293Z,40.54
2017-08-16T08:53:42.092Z,40.73
2017-08-16T08:54:22.894Z,40.83
2017-08-16T08:55:03.693Z,40.87
2017-08-16T08:55:44.494Z,40.96
2017-08-16T08:59:31.056Z,40.77
2017-08-16T09:00:11.855Z,41.06
2017-08-16T09:00:52.658Z,41.08
2017-08-16T09:01:33.457Z,41.32
2017-08-16T09:03:10.900Z,41.41
2017-08-16T09:03:51.818Z,40.89
2017-08-16T09:04:32.618Z,40.08
2017-08-16T09:06:10.179Z,39.35
2017-08-16T09:06:50.979Z,39.62
2017-08-16T09:07:31.778Z,38.52
2017-08-16T09:08:12.580Z,37.93
2017-08-16T09:08:53.379Z,37.18
2017-08-16T09:09:34.180Z,36.69
2017-08-16T09:10:14.981Z,36.12
2017-08-16T09:10:55.781Z,35.65
2017-08-16T09:11:36.580Z,35.22
2017-08-16T09:12:32.020Z,34.81
2017-08-16T09:13:12.821Z,34.43
2017-08-16T09:13:53.623Z,34.21
2017-08-16T09:14:34.422Z,33.93
2017-08-16T09:15:15.223Z,33.73
2017-08-16T09:15:56.023Z,33.41
2017-08-16T09:16:36.824Z,33.19
2017-08-16T09:17:17.623Z,33.01
2017-08-16T09:17:58.424Z,32.77
2017-08-16T09:18:39.224Z,32.62
2017-08-16T09:19:20.024Z,32.43
2017-08-16T09:20:00.824Z,33.45
2017-08-16T09:20:41.624Z,33.44
2017-08-16T09:21:22.425Z,33.75
2017-08-16T09:22:03.225Z,34.25
2017-08-16T09:22:44.025Z,34.65
2017-08-16T09:23:24.827Z,33.97
2017-08-16T09:24:05.626Z,33.73
2017-08-16T09:24:46.427Z,33.41
2017-08-16T09:25:27.228Z,33.91